Time;durP1;ratioP1;P1;durP2;ratioP2;P2;SDS_P1;SDS_P2;PMS_P1;PMS_P2;Temp;Humidity;BMP_temperature;BMP_pressure;BME280_temperature;BME280_humidity;BME280_pressure;Samples;Min_cycle;Max_cycle;Signal;HPM_P1;HPM_P2
2023/12/21 06:00:42;;;;;;;0.70;0.50;;;;;;;;;;1742236;28;20211;-77
2023/12/21 06:01:34;;;;;;;1.58;0.50;;;;;;;;;;1742053;28;20203;-77
2023/12/21 06:02:26;;;;;;;0.80;0.60;;;;;;;;;;1742068;28;20242;-77
2023/12/21 06:03:17;;;;;;;0.60;0.40;;;;;;;;;;1742123;28;20207;-76
2023/12/21 06:04:09;;;;;;;0.90;0.50;;;;;;;;;;1742101;28;20199;-77
2023/12/21 06:05:00;;;;;;;0.73;0.57;;;;;;;;;;1742104;28;20207;-77
2023/12/21 06:05:52;;;;;;;2.05;0.50;;;;;;;;;;1742265;28;20199;-77
2023/12/21 06:06:46;;;;;;;1.00;0.50;;;;;;;;;;1742131;28;20207;-77
2023/12/21 06:07:37;;;;;;;1.08;0.50;;;;;;;;;;1741656;28;20203;-76
2023/12/21 06:08:29;;;;;;;1.08;0.50;;;;;;;;;;1742022;28;20211;-77
2023/12/21 06:09:20;;;;;;;0.70;0.50;;;;;;;;;;1742329;28;20199;-79
2023/12/21 06:10:11;;;;;;;0.80;0.60;;;;;;;;;;1743747;28;20683;-74
2023/12/21 06:11:03;;;;;;;0.90;0.50;;;;;;;;;;1741628;28;20284;-75
2023/12/21 06:11:54;;;;;;;0.90;0.60;;;;;;;;;;1740457;28;20210;-75
2023/12/21 06:12:46;;;;;;;1.45;0.60;;;;;;;;;;1741695;28;20301;-75
2023/12/21 06:13:37;;;;;;;1.23;0.60;;;;;;;;;;1741632;28;20207;-75
2023/12/21 06:14:29;;;;;;;0.70;0.50;;;;;;;;;;1741621;28;20201;-75
2023/12/21 06:15:21;;;;;;;1.52;0.55;;;;;;;;;;1742762;28;20195;-76
2023/12/21 06:16:14;;;;;;;1.45;0.90;;;;;;;;;;1741537;28;20578;-75
2023/12/21 06:17:05;;;;;;;0.80;0.57;;;;;;;;;;1741670;28;20313;-73
2023/12/21 06:17:57;;;;;;;0.70;0.57;;;;;;;;;;1741361;28;20191;-75
2023/12/21 06:18:50;;;;;;;0.80;0.75;;;;;;;;;;1741722;28;20231;-76
2023/12/21 06:19:42;;;;;;;1.38;0.85;;;;;;;;;;1741526;28;20207;-74
2023/12/21 06:20:35;;;;;;;0.90;0.70;;;;;;;;;;1741733;28;20277;-75
2023/12/21 06:21:26;;;;;;;1.42;0.60;;;;;;;;;;1742490;28;20207;-75
2023/12/21 06:22:17;;;;;;;0.70;0.68;;;;;;;;;;1741593;28;20197;-74
2023/12/21 06:23:09;;;;;;;1.15;0.60;;;;;;;;;;1741582;28;20227;-75
2023/12/21 06:24:00;;;;;;;0.65;0.50;;;;;;;;;;1741797;28;20223;-81
2023/12/21 06:24:52;;;;;;;0.70;0.65;;;;;;;;;;1742746;28;20202;-81
2023/12/21 06:25:43;;;;;;;0.80;0.60;;;;;;;;;;1744636;28;20207;-79
2023/12/21 06:26:39;;;;;;;0.90;0.60;;;;;;;;;;1743103;28;20295;-80
2023/12/21 06:27:31;;;;;;;0.70;0.50;;;;;;;;;;1741764;28;20296;-80
2023/12/21 06:28:22;;;;;;;0.95;0.70;;;;;;;;;;1742313;28;20203;-81
2023/12/21 06:29:13;;;;;;;0.70;0.50;;;;;;;;;;1742502;28;20199;-81
2023/12/21 06:30:06;;;;;;;0.93;0.60;;;;;;;;;;1742426;28;20223;-80
2023/12/21 06:30:57;;;;;;;0.80;0.60;;;;;;;;;;1742280;28;20203;-80
2023/12/21 06:31:50;;;;;;;0.70;0.60;;;;;;;;;;1741418;28;20199;-80
2023/12/21 06:32:41;;;;;;;0.75;0.60;;;;;;;;;;1736634;28;20210;-80
2023/12/21 06:33:33;;;;;;;0.80;0.50;;;;;;;;;;1742616;28;20229;-81
2023/12/21 06:34:25;;;;;;;0.80;0.60;;;;;;;;;;1742523;28;20225;-81
2023/12/21 06:35:17;;;;;;;0.70;0.70;;;;;;;;;;1742712;28;20604;-81
2023/12/21 06:36:08;;;;;;;1.45;0.50;;;;;;;;;;1742727;28;20209;-81
2023/12/21 06:37:01;;;;;;;0.70;0.50;;;;;;;;;;1742899;28;20203;-80
2023/12/21 06:37:52;;;;;;;1.13;0.70;;;;;;;;;;1741510;28;20230;-80
2023/12/21 06:38:43;;;;;;;0.80;0.55;;;;;;;;;;1742467;28;20214;-81
2023/12/21 06:39:35;;;;;;;0.70;0.60;;;;;;;;;;1742540;28;20226;-80
2023/12/21 06:40:26;;;;;;;0.70;0.50;;;;;;;;;;1742642;28;20207;-80
2023/12/21 06:41:18;;;;;;;0.80;0.60;;;;;;;;;;1743654;28;20230;-81
2023/12/21 06:42:10;;;;;;;0.80;0.60;;;;;;;;;;1742137;28;20187;-81
2023/12/21 06:43:01;;;;;;;0.70;0.60;;;;;;;;;;1742848;28;20214;-81
2023/12/21 06:43:53;;;;;;;1.35;0.70;;;;;;;;;;1742797;28;20209;-81
2023/12/21 06:44:44;;;;;;;1.45;0.70;;;;;;;;;;1746473;28;20214;-81
2023/12/21 06:45:35;;;;;;;2.85;0.60;;;;;;;;;;1742532;28;20241;-81
2023/12/21 06:46:27;;;;;;;0.70;0.55;;;;;;;;;;1742760;28;20207;-81
2023/12/21 06:47:20;;;;;;;0.85;0.63;;;;;;;;;;1742766;28;20211;-81
2023/12/21 06:48:11;;;;;;;0.70;0.50;;;;;;;;;;1741326;28;20667;-81
2023/12/21 06:49:03;;;;;;;2.15;0.70;;;;;;;;;;1742319;28;20566;-81
2023/12/21 06:49:54;;;;;;;0.70;0.50;;;;;;;;;;1742492;28;20234;-81
2023/12/21 06:50:45;;;;;;;0.80;0.60;;;;;;;;;;1742602;28;20234;-81
2023/12/21 06:51:38;;;;;;;0.80;0.70;;;;;;;;;;1742867;28;20198;-81
2023/12/21 06:52:30;;;;;;;1.00;0.90;;;;;;;;;;1744970;28;20271;-82
2023/12/21 06:53:21;;;;;;;0.95;0.80;;;;;;;;;;1742603;28;20578;-81
2023/12/21 06:54:13;;;;;;;1.17;0.70;;;;;;;;;;1742558;28;20215;-81
2023/12/21 06:55:05;;;;;;;1.35;0.70;;;;;;;;;;1742685;28;20210;-80
2023/12/21 06:55:56;;;;;;;1.02;0.70;;;;;;;;;;1745805;28;20207;-84
2023/12/21 06:56:48;;;;;;;0.80;0.73;;;;;;;;;;1743208;28;20227;-84
2023/12/21 06:57:39;;;;;;;1.00;0.80;;;;;;;;;;1740175;28;20274;-85
2023/12/21 06:58:30;;;;;;;1.20;1.00;;;;;;;;;;1743332;28;20198;-83
2023/12/21 06:59:23;;;;;;;0.90;0.70;;;;;;;;;;1742920;28;20687;-85
2023/12/21 07:00:14;;;;;;;0.70;0.70;;;;;;;;;;1743461;28;20286;-82
2023/12/21 07:01:06;;;;;;;2.17;0.80;;;;;;;;;;1747281;28;20201;-83
2023/12/21 07:01:59;;;;;;;0.70;0.60;;;;;;;;;;1746464;28;20262;-83
2023/12/21 07:02:53;;;;;;;1.20;0.88;;;;;;;;;;1747873;28;20198;-83
2023/12/21 07:03:44;;;;;;;1.45;0.70;;;;;;;;;;1744197;28;20218;-84
2023/12/21 07:04:35;;;;;;;0.80;0.70;;;;;;;;;;1750045;28;20240;-85
2023/12/21 07:05:27;;;;;;;0.80;0.75;;;;;;;;;;1740339;28;20211;-83
2023/12/21 07:06:18;;;;;;;0.90;0.60;;;;;;;;;;1742166;28;20206;-82
2023/12/21 07:07:09;;;;;;;0.80;0.80;;;;;;;;;;1743109;28;20195;-83
2023/12/21 07:08:02;;;;;;;1.05;0.82;;;;;;;;;;1745578;28;20194;-83
2023/12/21 07:08:53;;;;;;;0.90;0.65;;;;;;;;;;1745678;28;20333;-84
2023/12/21 07:09:45;;;;;;;0.90;0.70;;;;;;;;;;1742293;28;21860;-84
2023/12/21 07:10:36;;;;;;;0.98;0.88;;;;;;;;;;1742343;28;20203;-84
2023/12/21 07:11:27;;;;;;;0.80;0.70;;;;;;;;;;1742994;28;20235;-83
2023/12/21 07:12:20;;;;;;;1.10;0.80;;;;;;;;;;1747876;28;20203;-81
2023/12/21 07:13:11;;;;;;;1.02;0.82;;;;;;;;;;1745300;28;20199;-81
2023/12/21 07:14:03;;;;;;;0.95;0.65;;;;;;;;;;1749180;28;20198;-82
2023/12/21 07:14:54;;;;;;;0.80;0.60;;;;;;;;;;1746429;28;20232;-80
2023/12/21 07:15:45;;;;;;;0.70;0.60;;;;;;;;;;1742891;28;20546;-81
2023/12/21 07:16:37;;;;;;;1.27;0.70;;;;;;;;;;1742913;28;20214;-80
2023/12/21 07:17:29;;;;;;;0.82;0.70;;;;;;;;;;1749535;28;20211;-81
2023/12/21 07:18:22;;;;;;;1.00;0.70;;;;;;;;;;1743110;28;20203;-80
2023/12/21 07:19:13;;;;;;;0.80;0.50;;;;;;;;;;1743090;28;20208;-81
2023/12/21 07:20:05;;;;;;;1.20;0.68;;;;;;;;;;1746445;28;20225;-80
2023/12/21 07:20:57;;;;;;;0.70;0.60;;;;;;;;;;1747024;28;20213;-81
2023/12/21 07:21:48;;;;;;;3.90;0.52;;;;;;;;;;1748279;28;20237;-81
2023/12/21 07:22:39;;;;;;;0.70;0.50;;;;;;;;;;1743178;28;20203;-80
2023/12/21 07:23:31;;;;;;;0.70;0.60;;;;;;;;;;1743055;28;20237;-80
2023/12/21 07:24:22;;;;;;;0.88;0.60;;;;;;;;;;1746900;28;21156;-83
2023/12/21 07:25:13;;;;;;;0.80;0.60;;;;;;;;;;1748492;28;20222;-83
2023/12/21 07:26:06;;;;;;;1.20;0.60;;;;;;;;;;1743349;28;21116;-82
2023/12/21 07:26:57;;;;;;;0.70;0.50;;;;;;;;;;1743225;28;20195;-83
2023/12/21 07:27:48;;;;;;;1.35;0.60;;;;;;;;;;1744096;28;20203;-84
2023/12/21 07:28:40;;;;;;;1.05;0.60;;;;;;;;;;1744067;28;20213;-82
2023/12/21 07:29:31;;;;;;;0.70;0.50;;;;;;;;;;1750028;28;20206;-83
2023/12/21 07:30:23;;;;;;;0.80;0.60;;;;;;;;;;1743879;28;20270;-83
2023/12/21 07:31:15;;;;;;;1.40;0.50;;;;;;;;;;1743565;28;20195;-84
2023/12/21 07:32:07;;;;;;;0.80;0.50;;;;;;;;;;1743441;28;20678;-83
2023/12/21 07:32:59;;;;;;;0.70;0.45;;;;;;;;;;1746452;28;20199;-81
2023/12/21 07:33:51;;;;;;;0.70;0.45;;;;;;;;;;1748141;28;20205;-81
2023/12/21 07:34:43;;;;;;;1.55;0.60;;;;;;;;;;1743543;28;20199;-83
2023/12/21 07:35:34;;;;;;;1.00;0.50;;;;;;;;;;1739848;28;20199;-84
2023/12/21 07:36:25;;;;;;;1.75;0.68;;;;;;;;;;1750378;28;20198;-83
2023/12/21 07:37:17;;;;;;;0.73;0.57;;;;;;;;;;1744580;28;20198;-81
2023/12/21 07:38:08;;;;;;;0.80;0.50;;;;;;;;;;1742183;28;20203;-82
2023/12/21 07:39:00;;;;;;;0.90;0.60;;;;;;;;;;1746185;28;20203;-83
2023/12/21 07:39:52;;;;;;;0.98;0.60;;;;;;;;;;1744700;28;20219;-82
2023/12/21 07:40:43;;;;;;;0.70;0.50;;;;;;;;;;1742753;28;20580;-82
2023/12/21 07:41:35;;;;;;;0.80;0.60;;;;;;;;;;1743318;28;20206;-82
2023/12/21 07:42:27;;;;;;;1.23;0.60;;;;;;;;;;1742431;28;20199;-82
2023/12/21 07:43:19;;;;;;;1.00;0.70;;;;;;;;;;1740461;28;20211;-76
2023/12/21 07:44:10;;;;;;;0.70;0.50;;;;;;;;;;1740584;28;20197;-77
2023/12/21 07:45:02;;;;;;;0.70;0.50;;;;;;;;;;1741385;28;20624;-77
2023/12/21 07:45:53;;;;;;;0.70;0.50;;;;;;;;;;1741615;28;20214;-77
2023/12/21 07:46:45;;;;;;;0.60;0.40;;;;;;;;;;1741342;28;20545;-77
2023/12/21 07:47:36;;;;;;;1.10;0.60;;;;;;;;;;1739985;28;20207;-77
2023/12/21 07:48:27;;;;;;;0.70;0.40;;;;;;;;;;1741115;28;20546;-77
2023/12/21 07:49:20;;;;;;;0.80;0.60;;;;;;;;;;1740919;28;20662;-76
2023/12/21 07:50:12;;;;;;;2.25;0.80;;;;;;;;;;1741197;28;20227;-77
2023/12/21 07:51:03;;;;;;;0.93;0.63;;;;;;;;;;1745341;28;20210;-77
2023/12/21 07:51:55;;;;;;;0.80;0.60;;;;;;;;;;1741346;28;20199;-77
2023/12/21 07:52:46;;;;;;;1.25;0.77;;;;;;;;;;1740617;28;20267;-77
2023/12/21 07:53:38;;;;;;;1.35;0.60;;;;;;;;;;1744373;28;20202;-76
2023/12/21 07:54:29;;;;;;;1.55;0.93;;;;;;;;;;1747374;28;20210;-77
2023/12/21 07:55:21;;;;;;;0.80;0.60;;;;;;;;;;1740643;28;20203;-76
2023/12/21 07:56:12;;;;;;;1.00;0.70;;;;;;;;;;1740642;28;20207;-75
2023/12/21 07:57:04;;;;;;;0.70;0.50;;;;;;;;;;1740633;28;20238;-77
2023/12/21 07:57:56;;;;;;;0.70;0.50;;;;;;;;;;1740157;28;20626;-77
2023/12/21 07:58:47;;;;;;;1.45;0.60;;;;;;;;;;1740536;28;20207;-76
2023/12/21 07:59:38;;;;;;;1.88;0.50;;;;;;;;;;1740954;28;20617;-77
2023/12/21 08:00:30;;;;;;;0.80;0.65;;;;;;;;;;1740946;28;20223;-76
2023/12/21 08:01:21;;;;;;;2.28;0.68;;;;;;;;;;1740068;28;20203;-77
2023/12/21 08:02:12;;;;;;;0.80;0.55;;;;;;;;;;1740772;28;20582;-77
2023/12/21 08:03:04;;;;;;;0.70;0.50;;;;;;;;;;1740551;28;20199;-76
2023/12/21 08:03:55;;;;;;;1.00;0.60;;;;;;;;;;1740995;28;20214;-77
2023/12/21 08:04:48;;;;;;;0.68;0.47;;;;;;;;;;1742121;28;20619;-77
2023/12/21 08:05:40;;;;;;;0.80;0.60;;;;;;;;;;1741322;28;20244;-77
2023/12/21 08:06:31;;;;;;;0.80;0.60;;;;;;;;;;1741278;28;20588;-76
2023/12/21 08:07:22;;;;;;;1.30;0.60;;;;;;;;;;1741206;28;20198;-77
2023/12/21 08:08:14;;;;;;;0.80;0.60;;;;;;;;;;1740410;28;20285;-77
2023/12/21 08:09:05;;;;;;;0.70;0.50;;;;;;;;;;1741161;28;20203;-76
2023/12/21 08:10:01;;;;;;;0.90;0.60;;;;;;;;;;1741229;28;20223;-77
2023/12/21 08:10:53;;;;;;;0.70;0.50;;;;;;;;;;1741302;28;20261;-77
2023/12/21 08:11:44;;;;;;;0.90;0.60;;;;;;;;;;1741144;28;20214;-76
2023/12/21 08:12:35;;;;;;;1.00;0.70;;;;;;;;;;1741283;28;20249;-76
2023/12/21 08:13:27;;;;;;;0.90;0.50;;;;;;;;;;1741246;28;20222;-76
2023/12/21 08:14:19;;;;;;;0.85;0.60;;;;;;;;;;1741200;28;20207;-75
2023/12/21 08:15:10;;;;;;;0.77;0.60;;;;;;;;;;1741264;28;20202;-77
2023/12/21 08:16:03;;;;;;;0.73;0.60;;;;;;;;;;1741088;28;20194;-77
2023/12/21 08:16:54;;;;;;;1.05;0.70;;;;;;;;;;1741196;28;20207;-76
2023/12/21 08:17:47;;;;;;;0.70;0.60;;;;;;;;;;1740365;28;20237;-77
2023/12/21 08:18:39;;;;;;;0.90;0.60;;;;;;;;;;1741288;28;20199;-76
2023/12/21 08:19:31;;;;;;;1.77;0.70;;;;;;;;;;1746239;28;20281;-76
2023/12/21 08:20:24;;;;;;;1.00;0.57;;;;;;;;;;1741235;28;20579;-77
2023/12/21 08:21:16;;;;;;;0.90;0.50;;;;;;;;;;1741064;28;20636;-76
2023/12/21 08:22:09;;;;;;;0.80;0.50;;;;;;;;;;1741220;28;20290;-77
2023/12/21 08:23:03;;;;;;;0.70;0.50;;;;;;;;;;1741210;28;20199;-76
2023/12/21 08:23:55;;;;;;;0.70;0.60;;;;;;;;;;1741197;28;20608;-77
2023/12/21 08:24:46;;;;;;;0.70;0.52;;;;;;;;;;1741152;28;20202;-76
2023/12/21 08:25:38;;;;;;;0.80;0.60;;;;;;;;;;1741095;28;20241;-76
2023/12/21 08:26:29;;;;;;;2.08;0.82;;;;;;;;;;1741116;28;20222;-76
2023/12/21 08:27:21;;;;;;;2.25;1.25;;;;;;;;;;1741104;28;20203;-77
2023/12/21 08:28:12;;;;;;;0.73;0.60;;;;;;;;;;1740393;28;20203;-77
2023/12/21 08:29:03;;;;;;;0.70;0.50;;;;;;;;;;1741070;28;20205;-77
2023/12/21 08:29:55;;;;;;;0.70;0.55;;;;;;;;;;1741108;28;20272;-77
2023/12/21 08:30:46;;;;;;;0.80;0.60;;;;;;;;;;1741136;28;20209;-77
2023/12/21 08:31:38;;;;;;;0.80;0.60;;;;;;;;;;1741231;28;20675;-77
2023/12/21 08:32:30;;;;;;;0.75;0.55;;;;;;;;;;1740979;28;20199;-76
2023/12/21 08:33:21;;;;;;;0.80;0.60;;;;;;;;;;1740943;28;20840;-76
2023/12/21 08:34:12;;;;;;;1.10;0.70;;;;;;;;;;1741249;28;20195;-76
2023/12/21 08:35:04;;;;;;;0.88;0.70;;;;;;;;;;1741106;28;20289;-77
2023/12/21 08:35:58;;;;;;;1.80;0.73;;;;;;;;;;1741295;28;20286;-77
2023/12/21 08:36:50;;;;;;;1.10;0.70;;;;;;;;;;1741114;28;20238;-76
2023/12/21 08:37:41;;;;;;;0.80;0.70;;;;;;;;;;1740413;28;20203;-77
2023/12/21 08:38:32;;;;;;;0.98;0.70;;;;;;;;;;1741182;28;20223;-77
2023/12/21 08:39:26;;;;;;;1.58;0.80;;;;;;;;;;1741186;28;20206;-77
2023/12/21 08:40:17;;;;;;;1.00;0.65;;;;;;;;;;1741171;28;20215;-76
2023/12/21 08:41:09;;;;;;;1.42;0.65;;;;;;;;;;1741150;28;20565;-77
2023/12/21 08:42:01;;;;;;;0.90;0.60;;;;;;;;;;1741056;28;20195;-77
2023/12/21 08:42:53;;;;;;;1.00;0.90;;;;;;;;;;1741180;28;20257;-77
2023/12/21 08:43:45;;;;;;;0.90;0.77;;;;;;;;;;1741077;28;20679;-77
2023/12/21 08:44:37;;;;;;;0.90;0.70;;;;;;;;;;1741119;28;20253;-77
2023/12/21 08:45:28;;;;;;;0.90;0.70;;;;;;;;;;1741083;28;20210;-77
2023/12/21 08:46:19;;;;;;;1.08;0.90;;;;;;;;;;1741049;28;20239;-77
2023/12/21 08:47:11;;;;;;;1.05;0.88;;;;;;;;;;1741234;28;20206;-77
2023/12/21 08:48:03;;;;;;;1.10;0.60;;;;;;;;;;1740422;28;20207;-77
2023/12/21 08:48:54;;;;;;;1.10;0.80;;;;;;;;;;1741192;28;20210;-77
2023/12/21 08:49:46;;;;;;;0.90;0.70;;;;;;;;;;1742175;28;20306;-76
2023/12/21 08:50:37;;;;;;;1.90;1.17;;;;;;;;;;1734434;28;20216;-76
2023/12/21 08:51:31;;;;;;;1.63;0.82;;;;;;;;;;1734247;28;20199;-77
2023/12/21 08:52:22;;;;;;;1.55;0.98;;;;;;;;;;1740048;28;20219;-77
2023/12/21 08:53:14;;;;;;;0.82;0.77;;;;;;;;;;1741150;28;20218;-77
2023/12/21 08:54:05;;;;;;;0.80;0.55;;;;;;;;;;1741010;28;20199;-77
2023/12/21 08:54:57;;;;;;;0.90;0.70;;;;;;;;;;1741120;28;20199;-77
2023/12/21 08:55:48;;;;;;;0.80;0.70;;;;;;;;;;1741167;28;20210;-77
2023/12/21 08:56:44;;;;;;;1.00;0.80;;;;;;;;;;1741174;28;20574;-76
2023/12/21 08:57:36;;;;;;;1.20;0.90;;;;;;;;;;1740535;28;20210;-77
2023/12/21 08:58:27;;;;;;;0.82;0.70;;;;;;;;;;1741182;28;20771;-76
2023/12/21 08:59:18;;;;;;;1.25;0.90;;;;;;;;;;1741074;28;20207;-76
2023/12/21 09:00:12;;;;;;;1.73;1.00;;;;;;;;;;1740968;28;20718;-76
2023/12/21 09:01:04;;;;;;;0.80;0.63;;;;;;;;;;1741255;28;20211;-77
2023/12/21 09:01:55;;;;;;;0.82;0.70;;;;;;;;;;1742440;28;20313;-77
2023/12/21 09:02:47;;;;;;;1.83;1.00;;;;;;;;;;1742478;28;20670;-77
2023/12/21 09:03:38;;;;;;;1.40;0.90;;;;;;;;;;1742572;28;20260;-76
2023/12/21 09:04:29;;;;;;;1.05;0.80;;;;;;;;;;1742332;28;20214;-76
2023/12/21 09:05:23;;;;;;;0.85;0.70;;;;;;;;;;1742991;28;20226;-77
2023/12/21 09:06:14;;;;;;;1.25;0.70;;;;;;;;;;1742327;28;20207;-77
2023/12/21 09:07:07;;;;;;;1.70;1.05;;;;;;;;;;1742344;28;20225;-77
2023/12/21 09:07:59;;;;;;;1.15;1.05;;;;;;;;;;1741615;28;20211;-76
2023/12/21 09:08:50;;;;;;;0.98;0.88;;;;;;;;;;1742470;28;20576;-76
2023/12/21 09:09:42;;;;;;;0.90;0.80;;;;;;;;;;1742281;28;20305;-77
2023/12/21 09:10:33;;;;;;;0.90;0.70;;;;;;;;;;1742598;28;20207;-77
2023/12/21 09:11:25;;;;;;;1.20;1.05;;;;;;;;;;1742354;28;20203;-77
2023/12/21 09:12:18;;;;;;;1.25;1.10;;;;;;;;;;1742503;28;20203;-77
2023/12/21 09:13:11;;;;;;;1.00;0.80;;;;;;;;;;1742443;28;20288;-76
2023/12/21 09:14:02;;;;;;;1.23;0.63;;;;;;;;;;1742433;28;20250;-77
2023/12/21 09:14:54;;;;;;;1.08;0.80;;;;;;;;;;1742494;28;20272;-77
2023/12/21 09:15:45;;;;;;;1.05;0.80;;;;;;;;;;1742445;28;20215;-77
2023/12/21 09:16:36;;;;;;;1.73;0.70;;;;;;;;;;1742391;28;20235;-77
2023/12/21 09:17:29;;;;;;;0.80;0.60;;;;;;;;;;1742024;28;20557;-76
2023/12/21 09:18:21;;;;;;;1.17;0.60;;;;;;;;;;1742044;28;20199;-76
2023/12/21 09:19:13;;;;;;;1.05;0.80;;;;;;;;;;1742594;28;20199;-77
2023/12/21 09:20:04;;;;;;;1.42;1.00;;;;;;;;;;1742257;28;20226;-77
2023/12/21 09:20:56;;;;;;;1.38;1.13;;;;;;;;;;1742367;28;20285;-77
2023/12/21 09:21:48;;;;;;;1.83;1.15;;;;;;;;;;1742441;28;20206;-78
2023/12/21 09:22:41;;;;;;;1.45;1.05;;;;;;;;;;1743497;28;20676;-76
2023/12/21 09:23:32;;;;;;;1.88;1.60;;;;;;;;;;1742560;28;20210;-77
2023/12/21 09:24:25;;;;;;;2.10;1.38;;;;;;;;;;1742338;28;20256;-76
2023/12/21 09:25:16;;;;;;;2.97;2.00;;;;;;;;;;1742493;28;20203;-76
2023/12/21 09:26:08;;;;;;;2.45;2.08;;;;;;;;;;1742415;28;20207;-77
2023/12/21 09:27:00;;;;;;;3.58;2.28;;;;;;;;;;1742394;28;20192;-77
2023/12/21 09:27:53;;;;;;;5.95;4.15;;;;;;;;;;1741751;28;20211;-77
2023/12/21 09:28:45;;;;;;;8.98;7.13;;;;;;;;;;1735631;28;20227;-76
2023/12/21 09:29:37;;;;;;;3.10;2.20;;;;;;;;;;1735647;28;20214;-77
2023/12/21 09:30:29;;;;;;;2.60;1.50;;;;;;;;;;1741306;28;20199;-77
2023/12/21 09:31:21;;;;;;;3.45;2.08;;;;;;;;;;1742448;28;20608;-77
2023/12/21 09:32:13;;;;;;;1.25;0.82;;;;;;;;;;1742443;28;20207;-77
2023/12/21 09:33:05;;;;;;;1.00;0.80;;;;;;;;;;1742465;28;20664;-77
2023/12/21 09:33:56;;;;;;;1.65;1.05;;;;;;;;;;1742547;28;20250;-77
2023/12/21 09:34:48;;;;;;;2.83;1.65;;;;;;;;;;1742371;28;20210;-77
2023/12/21 09:35:40;;;;;;;2.30;1.70;;;;;;;;;;1742339;28;20699;-76
2023/12/21 09:36:31;;;;;;;4.13;2.60;;;;;;;;;;1742400;28;20254;-77
2023/12/21 09:37:23;;;;;;;1.88;1.05;;;;;;;;;;1742441;28;20221;-76
2023/12/21 09:38:16;;;;;;;2.15;1.27;;;;;;;;;;1734794;28;20200;-77
2023/12/21 09:39:11;;;;;;;3.72;1.90;;;;;;;;;;1744243;28;20201;-77
2023/12/21 09:40:02;;;;;;;3.10;2.40;;;;;;;;;;1743263;28;20601;-77
2023/12/21 09:40:53;;;;;;;4.55;2.60;;;;;;;;;;1742289;28;20286;-77
2023/12/21 09:41:46;;;;;;;4.20;1.80;;;;;;;;;;1742201;28;20203;-76
2023/12/21 09:42:40;;;;;;;4.10;2.70;;;;;;;;;;1742239;28;20214;-77
2023/12/21 09:43:32;;;;;;;2.00;1.30;;;;;;;;;;1742082;28;20211;-77
2023/12/21 09:44:24;;;;;;;1.10;0.85;;;;;;;;;;1742364;28;20264;-76
2023/12/21 09:45:18;;;;;;;1.70;1.20;;;;;;;;;;1742474;28;20195;-77
2023/12/21 09:46:10;;;;;;;2.20;1.45;;;;;;;;;;1742096;28;20218;-76
2023/12/21 09:47:04;;;;;;;2.17;1.77;;;;;;;;;;1742158;28;20206;-77
2023/12/21 09:47:56;;;;;;;1.40;1.27;;;;;;;;;;1741420;28;20199;-76
2023/12/21 09:48:47;;;;;;;1.25;1.15;;;;;;;;;;1742233;28;20203;-77
2023/12/21 09:49:39;;;;;;;2.95;1.33;;;;;;;;;;1742316;28;20619;-77
2023/12/21 09:50:31;;;;;;;2.08;1.80;;;;;;;;;;1742357;28;20199;-76
2023/12/21 09:51:24;;;;;;;0.80;0.70;;;;;;;;;;1742256;28;20207;-76
2023/12/21 09:52:17;;;;;;;1.10;0.73;;;;;;;;;;1742421;28;20253;-77
2023/12/21 09:53:12;;;;;;;0.80;0.70;;;;;;;;;;1742184;28;20203;-76
2023/12/21 09:54:06;;;;;;;1.00;0.90;;;;;;;;;;1742180;28;20204;-77
2023/12/21 09:54:57;;;;;;;1.00;0.90;;;;;;;;;;1743343;28;20214;-77
2023/12/21 09:55:49;;;;;;;1.00;0.90;;;;;;;;;;1742308;28;20260;-77
2023/12/21 09:56:41;;;;;;;0.88;0.63;;;;;;;;;;1742120;28;20234;-77
2023/12/21 09:57:35;;;;;;;1.45;0.70;;;;;;;;;;1741709;28;20788;-76
2023/12/21 09:58:26;;;;;;;1.13;0.60;;;;;;;;;;1742338;28;20348;-76
2023/12/21 09:59:17;;;;;;;1.02;0.55;;;;;;;;;;1742550;28;20203;-77
2023/12/21 10:00:10;;;;;;;0.70;0.60;;;;;;;;;;1742156;28;20305;-77
2023/12/21 10:01:01;;;;;;;2.00;0.60;;;;;;;;;;1742379;28;20207;-76
2023/12/21 10:01:53;;;;;;;0.80;0.47;;;;;;;;;;1742195;28;20230;-77
2023/12/21 10:02:44;;;;;;;1.27;0.80;;;;;;;;;;1742308;28;20203;-77
2023/12/21 10:03:36;;;;;;;1.85;0.70;;;;;;;;;;1742281;28;20201;-77
2023/12/21 10:04:27;;;;;;;1.00;0.85;;;;;;;;;;1742066;28;20222;-77
2023/12/21 10:05:20;;;;;;;0.80;0.60;;;;;;;;;;1742342;28;20690;-77
2023/12/21 10:06:11;;;;;;;0.80;0.60;;;;;;;;;;1742212;28;20256;-77
2023/12/21 10:07:04;;;;;;;1.48;0.80;;;;;;;;;;1742404;28;20562;-76
2023/12/21 10:07:55;;;;;;;1.08;0.70;;;;;;;;;;1741427;28;20204;-74
2023/12/21 10:08:47;;;;;;;1.27;0.85;;;;;;;;;;1742207;28;20221;-74
2023/12/21 10:09:39;;;;;;;0.80;0.70;;;;;;;;;;1742096;28;20199;-74
2023/12/21 10:10:30;;;;;;;0.80;0.50;;;;;;;;;;1742187;28;20214;-74
2023/12/21 10:11:22;;;;;;;0.70;0.60;;;;;;;;;;1743122;28;20199;-74
2023/12/21 10:12:14;;;;;;;1.05;0.50;;;;;;;;;;1742009;28;20210;-74
2023/12/21 10:13:05;;;;;;;0.80;0.50;;;;;;;;;;1740917;28;20603;-74
2023/12/21 10:14:01;;;;;;;1.17;0.70;;;;;;;;;;1741991;28;20215;-74
2023/12/21 10:14:58;;;;;;;0.85;0.60;;;;;;;;;;1741996;28;20203;-74
2023/12/21 10:15:58;;;;;;;1.92;0.88;;;;;;;;;;1742108;28;20227;-74
2023/12/21 10:16:49;;;;;;;1.00;0.52;;;;;;;;;;1742019;28;20203;-74
2023/12/21 10:17:40;;;;;;;1.38;0.60;;;;;;;;;;1741157;28;20206;-74
2023/12/21 10:18:34;;;;;;;0.63;0.40;;;;;;;;;;1742072;28;20226;-74
2023/12/21 10:19:25;;;;;;;1.33;0.60;;;;;;;;;;1741998;28;20208;-73
2023/12/21 10:20:17;;;;;;;1.15;0.70;;;;;;;;;;1742095;28;20260;-73
2023/12/21 10:21:09;;;;;;;0.80;0.50;;;;;;;;;;1742004;28;20580;-74
2023/12/21 10:22:00;;;;;;;0.70;0.60;;;;;;;;;;1742006;28;20199;-74
2023/12/21 10:22:52;;;;;;;0.90;0.60;;;;;;;;;;1741872;28;20203;-74
2023/12/21 10:23:43;;;;;;;0.90;0.60;;;;;;;;;;1741809;28;20713;-74
2023/12/21 10:24:35;;;;;;;1.13;0.80;;;;;;;;;;1741932;28;20191;-73
2023/12/21 10:25:28;;;;;;;1.00;0.50;;;;;;;;;;1741950;28;20211;-73
2023/12/21 10:26:19;;;;;;;0.70;0.50;;;;;;;;;;1742038;28;20207;-74
2023/12/21 10:27:13;;;;;;;0.88;0.70;;;;;;;;;;1742022;28;20195;-74
2023/12/21 10:28:04;;;;;;;1.40;0.60;;;;;;;;;;1745880;28;20191;-74
2023/12/21 10:28:56;;;;;;;1.13;0.57;;;;;;;;;;1748177;28;20198;-74
2023/12/21 10:29:55;;;;;;;1.35;0.70;;;;;;;;;;1741940;28;20597;-74
2023/12/21 10:30:53;;;;;;;3.40;0.60;;;;;;;;;;1741887;28;20199;-73
2023/12/21 10:31:44;;;;;;;1.00;0.60;;;;;;;;;;1741929;28;20218;-74
2023/12/21 10:32:36;;;;;;;0.80;0.60;;;;;;;;;;1741810;28;20195;-74
2023/12/21 10:33:28;;;;;;;0.70;0.60;;;;;;;;;;1741622;28;20214;-74
2023/12/21 10:34:20;;;;;;;0.80;0.80;;;;;;;;;;1741710;28;20211;-74
2023/12/21 10:35:11;;;;;;;0.82;0.60;;;;;;;;;;1741742;28;20211;-74
2023/12/21 10:36:04;;;;;;;0.93;0.70;;;;;;;;;;1741745;28;20202;-73
2023/12/21 10:36:56;;;;;;;1.02;0.65;;;;;;;;;;1741728;28;20266;-73
2023/12/21 10:37:47;;;;;;;1.00;0.70;;;;;;;;;;1740958;28;20290;-74
2023/12/21 10:38:39;;;;;;;0.80;0.60;;;;;;;;;;1741748;28;20206;-74
2023/12/21 10:39:30;;;;;;;1.98;0.60;;;;;;;;;;1741675;28;20678;-74
2023/12/21 10:40:23;;;;;;;1.20;0.88;;;;;;;;;;1741642;28;20747;-74
2023/12/21 10:41:16;;;;;;;6.43;1.38;;;;;;;;;;1741838;28;20199;-74
2023/12/21 10:42:07;;;;;;;1.98;0.88;;;;;;;;;;1741732;28;20706;-74
2023/12/21 10:42:59;;;;;;;1.52;0.80;;;;;;;;;;1741707;28;20199;-74
2023/12/21 10:43:51;;;;;;;1.38;0.93;;;;;;;;;;1741751;28;20651;-74
2023/12/21 10:44:44;;;;;;;1.40;0.90;;;;;;;;;;1741598;28;20199;-74
2023/12/21 10:45:36;;;;;;;2.33;1.05;;;;;;;;;;1741717;28;20210;-74
2023/12/21 10:46:30;;;;;;;1.27;0.77;;;;;;;;;;1741665;28;20211;-74
2023/12/21 10:47:22;;;;;;;1.52;0.68;;;;;;;;;;1741712;28;20222;-73
2023/12/21 10:48:15;;;;;;;2.00;0.80;;;;;;;;;;1740842;28;20222;-74
2023/12/21 10:49:07;;;;;;;1.15;0.65;;;;;;;;;;1741660;28;20191;-74
2023/12/21 10:49:58;;;;;;;3.15;0.90;;;;;;;;;;1741606;28;20302;-74
2023/12/21 10:50:52;;;;;;;1.27;0.80;;;;;;;;;;1741679;28;20271;-74
2023/12/21 10:51:43;;;;;;;1.40;0.70;;;;;;;;;;1741621;28;20203;-73
2023/12/21 10:52:36;;;;;;;1.23;0.80;;;;;;;;;;1741649;28;20554;-74
2023/12/21 10:53:28;;;;;;;2.15;0.80;;;;;;;;;;1741512;28;20227;-73
2023/12/21 10:54:22;;;;;;;6.53;0.88;;;;;;;;;;1741494;28;20252;-74
2023/12/21 10:55:14;;;;;;;3.15;1.33;;;;;;;;;;1741603;28;20264;-74
2023/12/21 10:56:06;;;;;;;4.00;1.25;;;;;;;;;;1741639;28;20230;-74
2023/12/21 10:57:00;;;;;;;1.33;0.80;;;;;;;;;;1741614;28;20269;-74
2023/12/21 10:57:53;;;;;;;1.95;1.42;;;;;;;;;;1740807;28;20581;-74
2023/12/21 10:58:45;;;;;;;1.35;0.88;;;;;;;;;;1741667;28;20543;-74
2023/12/21 10:59:37;;;;;;;2.65;1.10;;;;;;;;;;1741621;28;20207;-74
2023/12/21 11:00:28;;;;;;;3.13;1.60;;;;;;;;;;1741768;28;20207;-74
2023/12/21 11:01:20;;;;;;;2.22;1.08;;;;;;;;;;1742177;28;20195;-73
2023/12/21 11:02:14;;;;;;;2.05;1.15;;;;;;;;;;1741606;28;20690;-74
2023/12/21 11:03:06;;;;;;;2.40;1.45;;;;;;;;;;1741541;28;20256;-74
2023/12/21 11:03:58;;;;;;;1.27;0.90;;;;;;;;;;1734752;28;20195;-74
2023/12/21 11:04:52;;;;;;;3.10;1.65;;;;;;;;;;1734628;28;20206;-74
2023/12/21 11:05:44;;;;;;;1.60;0.80;;;;;;;;;;1740386;28;20820;-74
2023/12/21 11:06:36;;;;;;;1.00;0.70;;;;;;;;;;1741634;28;20199;-74
2023/12/21 11:07:30;;;;;;;0.70;0.60;;;;;;;;;;1741034;28;20284;-73
2023/12/21 11:08:21;;;;;;;1.10;0.60;;;;;;;;;;1741316;28;20668;-74
2023/12/21 11:09:18;;;;;;;0.90;0.70;;;;;;;;;;1741493;28;20257;-74
2023/12/21 11:10:11;;;;;;;0.70;0.52;;;;;;;;;;1741490;28;20223;-73
2023/12/21 11:11:03;;;;;;;0.75;0.60;;;;;;;;;;1741557;28;20195;-73
2023/12/21 11:11:57;;;;;;;0.85;0.60;;;;;;;;;;1741612;28;20191;-74